Time;durP1;ratioP1;P1;durP2;ratioP2;P2;SDS_P1;SDS_P2;PMS_P1;PMS_P2;Temp;Humidity;BMP_temperature;BMP_pressure;BME280_temperature;BME280_humidity;BME280_pressure;Samples;Min_cycle;Max_cycle;Signal;HPM_P1;HPM_P2
2022/05/26 00:01:04;;;;;;;2.30;1.63;;;14.60;99.90;;;;;;5069994;28;20475;-65
2022/05/26 00:03:31;;;;;;;2.90;1.33;;;14.70;99.90;;;;;;5069770;28;20455;-64
2022/05/26 00:05:58;;;;;;;2.63;1.67;;;14.70;99.90;;;;;;5060541;28;20946;-67
2022/05/26 00:08:26;;;;;;;2.97;1.50;;;14.70;99.90;;;;;;5069129;28;20836;-66
2022/05/26 00:10:55;;;;;;;3.20;1.13;;;14.70;99.90;;;;;;5065480;28;20484;-65
2022/05/26 00:13:22;;;;;;;3.50;1.43;;;14.70;99.90;;;;;;5068762;28;20569;-66
2022/05/26 00:15:49;;;;;;;2.13;1.10;;;14.70;99.90;;;;;;5068752;28;20446;-65
2022/05/26 00:18:16;;;;;;;2.80;1.30;;;14.80;99.90;;;;;;5060033;28;20463;-65
2022/05/26 00:20:43;;;;;;;3.90;1.83;;;14.90;99.90;;;;;;5067459;28;20455;-64
2022/05/26 00:23:11;;;;;;;3.07;1.37;;;15.00;99.90;;;;;;5062762;28;21028;-65
2022/05/26 00:25:39;;;;;;;2.10;1.30;;;15.00;99.90;;;;;;5065712;28;20443;-66
2022/05/26 00:28:08;;;;;;;3.30;1.47;;;15.00;99.90;;;;;;5066740;28;20448;-66
2022/05/26 00:30:37;;;;;;;6.93;1.60;;;15.10;99.90;;;;;;5065791;28;20513;-66
2022/05/26 00:33:05;;;;;;;5.20;2.73;;;15.10;99.90;;;;;;5066828;28;20463;-64
2022/05/26 00:35:34;;;;;;;1.83;1.10;;;15.10;99.90;;;;;;5066264;28;20898;-64
2022/05/26 00:38:05;;;;;;;3.30;1.60;;;15.10;99.90;;;;;;5066251;28;20897;-64
2022/05/26 00:40:33;;;;;;;2.47;1.20;;;15.20;99.90;;;;;;5065999;28;20951;-64
2022/05/26 00:43:00;;;;;;;2.67;1.07;;;15.30;99.90;;;;;;5066677;28;20461;-63
2022/05/26 00:45:44;;;;;;;2.80;1.13;;;15.40;99.90;;;;;;5066543;28;20459;-62
2022/05/26 00:48:15;;;;;;;3.33;1.37;;;15.40;99.90;;;;;;5066797;28;20457;-64
2022/05/26 00:50:47;;;;;;;3.80;1.20;;;15.40;99.90;;;;;;5065833;28;20601;-65
2022/05/26 00:53:18;;;;;;;2.50;1.13;;;15.30;99.90;;;;;;5066111;28;20458;-64
2022/05/26 00:55:51;;;;;;;2.10;1.00;;;15.30;99.90;;;;;;5066197;28;20446;-64
2022/05/26 00:58:23;;;;;;;1.97;1.03;;;15.30;99.90;;;;;;5066498;28;20895;-64
2022/05/26 01:00:51;;;;;;;2.63;1.10;;;15.30;99.90;;;;;;5064359;28;20479;-64
2022/05/26 01:03:23;;;;;;;4.43;1.07;;;15.20;99.90;;;;;;5066184;28;20970;-64
2022/05/26 01:05:54;;;;;;;3.60;1.57;;;15.20;99.90;;;;;;5066003;28;20447;-64
2022/05/26 01:08:26;;;;;;;3.30;1.30;;;15.10;99.90;;;;;;5068245;28;20566;-64
2022/05/26 01:10:54;;;;;;;2.37;0.90;;;15.10;99.90;;;;;;5069621;28;20490;-65
2022/05/26 01:13:22;;;;;;;2.37;1.13;;;15.00;99.90;;;;;;5069860;28;20459;-65
2022/05/26 01:15:58;;;;;;;4.70;1.20;;;14.90;99.90;;;;;;5069621;28;20542;-64
2022/05/26 01:18:34;;;;;;;2.60;1.10;;;14.90;99.90;;;;;;5069919;28;20954;-64
2022/05/26 01:21:10;;;;;;;1.90;0.90;;;14.80;99.90;;;;;;5069242;28;20469;-65
2022/05/26 01:24:18;;;;;;;2.17;1.20;;;14.80;99.90;;;;;;5068760;28;20537;-64
2022/05/26 01:27:11;;;;;;;1.90;1.00;;;14.70;99.90;;;;;;5024786;28;20458;-65
2022/05/26 01:30:23;;;;;;;2.50;1.13;;;14.60;99.90;;;;;;5071856;28;21079;-65
2022/05/26 01:33:08;;;;;;;2.20;1.00;;;14.60;99.90;;;;;;5052180;28;20957;-65
2022/05/26 01:35:39;;;;;;;2.53;1.20;;;14.50;99.90;;;;;;5052495;28;20484;-65
2022/05/26 01:38:18;;;;;;;3.70;1.33;;;14.40;99.90;;;;;;5052149;28;21028;-66
2022/05/26 01:40:54;;;;;;;2.50;1.00;;;14.20;99.90;;;;;;5052037;28;20466;-66
2022/05/26 01:43:28;;;;;;;2.33;0.93;;;14.20;99.90;;;;;;5052465;28;20439;-66
2022/05/26 01:46:00;;;;;;;4.00;1.47;;;14.20;99.90;;;;;;5052329;28;20458;-65
2022/05/26 01:48:34;;;;;;;1.87;1.00;;;14.30;99.90;;;;;;5051913;28;20946;-65
2022/05/26 01:51:07;;;;;;;2.30;1.30;;;14.20;99.90;;;;;;5051316;28;20493;-65
2022/05/26 01:53:44;;;;;;;4.23;1.20;;;14.20;99.90;;;;;;5052100;28;20440;-65
2022/05/26 01:56:20;;;;;;;2.90;1.20;;;14.20;99.90;;;;;;5052013;28;20447;-64
2022/05/26 01:58:52;;;;;;;2.47;1.20;;;14.10;99.90;;;;;;5051776;28;20447;-65
2022/05/26 02:01:22;;;;;;;3.40;0.97;;;14.10;99.90;;;;;;5051046;28;20452;-65
2022/05/26 02:03:52;;;;;;;2.20;0.80;;;14.10;99.90;;;;;;5051530;28;20454;-65
2022/05/26 02:06:23;;;;;;;2.53;1.13;;;14.00;99.90;;;;;;5051783;28;20452;-65
2022/05/26 02:08:56;;;;;;;1.90;0.90;;;14.00;99.90;;;;;;5051570;28;20452;-64
2022/05/26 02:11:24;;;;;;;5.30;1.70;;;13.90;99.90;;;;;;5051199;28;20483;-65
2022/05/26 02:13:56;;;;;;;2.80;0.93;;;13.90;99.90;;;;;;5051327;28;20458;-65
2022/05/26 02:16:34;;;;;;;4.13;1.00;;;13.90;99.90;;;;;;5051549;28;20444;-65
2022/05/26 02:19:09;;;;;;;1.83;1.00;;;13.90;99.90;;;;;;5051141;28;20459;-65
2022/05/26 02:21:44;;;;;;;2.97;1.93;;;13.90;99.90;;;;;;5051002;28;20486;-65
2022/05/26 02:24:17;;;;;;;3.13;1.07;;;13.90;99.90;;;;;;5051264;28;20501;-65
2022/05/26 02:26:44;;;;;;;4.00;1.07;;;13.90;99.90;;;;;;5051411;28;20466;-63
2022/05/26 02:31:56;;;;;;;3.20;1.23;;;13.80;99.90;;;;;;5050904;28;20474;-65
2022/05/26 02:34:25;;;;;;;1.90;1.20;;;13.70;99.90;;;;;;5051129;28;20966;-65
2022/05/26 02:36:56;;;;;;;2.17;1.23;;;13.60;99.90;;;;;;5051314;28;20458;-65
2022/05/26 02:39:23;;;;;;;4.00;0.90;;;13.50;99.90;;;;;;5051114;28;21084;-65
2022/05/26 02:41:52;;;;;;;4.17;1.17;;;13.40;99.90;;;;;;5050916;28;20440;-65
2022/05/26 02:44:19;;;;;;;2.20;1.07;;;13.30;99.90;;;;;;5051177;28;20527;-65
2022/05/26 02:46:55;;;;;;;3.53;1.03;;;13.30;99.90;;;;;;5051151;28;20539;-65
2022/05/26 02:49:38;;;;;;;3.20;1.17;;;13.30;99.90;;;;;;5051023;28;20472;-64
2022/05/26 02:52:14;;;;;;;3.30;1.20;;;13.20;99.90;;;;;;5050930;28;20483;-64
2022/05/26 02:54:54;;;;;;;3.10;1.23;;;13.10;99.90;;;;;;5051145;28;20819;-65
2022/05/26 02:57:25;;;;;;;5.33;1.20;;;13.10;99.90;;;;;;5050878;28;20448;-65
2022/05/26 03:00:01;;;;;;;3.07;1.40;;;13.10;99.90;;;;;;5050574;28;20478;-65
2022/05/26 03:02:35;;;;;;;2.40;1.20;;;13.10;99.90;;;;;;5050622;28;20459;-65
2022/05/26 03:05:08;;;;;;;2.13;1.27;;;13.10;99.90;;;;;;5050701;28;20451;-65
2022/05/26 03:07:39;;;;;;;3.00;1.10;;;13.10;99.90;;;;;;5050478;28;20456;-65
2022/05/26 03:10:07;;;;;;;3.63;1.40;;;13.00;99.90;;;;;;5050041;28;20480;-65
2022/05/26 03:12:36;;;;;;;2.00;0.90;;;12.90;99.90;;;;;;5050509;28;20631;-65
2022/05/26 03:15:07;;;;;;;2.77;1.20;;;12.90;99.90;;;;;;5050444;28;20806;-65
2022/05/26 03:17:34;;;;;;;3.07;1.27;;;12.80;99.90;;;;;;5050353;28;20448;-65
2022/05/26 03:20:01;;;;;;;3.23;0.90;;;12.80;99.90;;;;;;5049973;28;20846;-65
2022/05/26 03:22:30;;;;;;;2.43;1.00;;;12.70;99.90;;;;;;5050180;28;20448;-65
2022/05/26 03:24:57;;;;;;;2.07;1.00;;;12.70;99.90;;;;;;5050241;28;20455;-65
2022/05/26 03:27:24;;;;;;;2.20;1.10;;;12.80;99.90;;;;;;5050216;28;20448;-65
2022/05/26 03:29:51;;;;;;;2.20;0.80;;;12.90;99.90;;;;;;5049623;28;20529;-64
2022/05/26 03:32:19;;;;;;;4.80;0.97;;;13.00;99.90;;;;;;5049635;28;21036;-64
2022/05/26 03:43:00;;;;;;;3.00;1.00;;;13.40;99.90;;;;;;5050092;28;20420;-64
2022/05/26 03:45:30;;;;;;;2.40;1.00;;;13.30;99.90;;;;;;5049689;28;20849;-65
2022/05/26 03:47:57;;;;;;;3.33;1.27;;;13.30;99.90;;;;;;5049683;28;21008;-65
2022/05/26 03:50:24;;;;;;;2.80;1.00;;;13.30;99.90;;;;;;5049526;28;20533;-65
2022/05/26 03:52:53;;;;;;;2.40;1.00;;;13.20;99.90;;;;;;5049808;28;20847;-65
2022/05/26 03:55:20;;;;;;;2.23;0.90;;;13.10;99.90;;;;;;5049652;28;20534;-65
2022/05/26 03:57:47;;;;;;;3.77;1.20;;;12.90;99.90;;;;;;5049480;28;21044;-65
2022/05/26 04:00:16;;;;;;;2.43;1.13;;;12.70;99.90;;;;;;5049047;28;20843;-65
2022/05/26 04:02:43;;;;;;;3.00;1.87;;;12.70;99.90;;;;;;5049530;28;20555;-65
2022/05/26 04:05:11;;;;;;;3.13;1.20;;;12.70;99.90;;;;;;5049423;28;20454;-63
2022/05/26 04:07:39;;;;;;;2.23;0.93;;;12.70;99.90;;;;;;5049653;28;20447;-65
2022/05/26 04:10:11;;;;;;;2.50;1.20;;;12.70;99.90;;;;;;5049004;28;20989;-64
2022/05/26 04:12:38;;;;;;;5.10;1.00;;;12.80;99.90;;;;;;5049418;28;20479;-66
2022/05/26 04:15:07;;;;;;;5.83;1.00;;;12.80;99.90;;;;;;5049615;28;20447;-65
2022/05/26 04:17:34;;;;;;;2.50;0.97;;;12.90;99.90;;;;;;5049638;28;20522;-65
2022/05/26 04:20:01;;;;;;;2.63;1.07;;;12.90;99.90;;;;;;5049134;28;20555;-65
2022/05/26 04:22:27;;;;;;;2.40;1.10;;;13.00;99.90;;;;;;5049474;28;20826;-63
2022/05/26 04:24:56;;;;;;;1.83;0.90;;;13.10;99.90;;;;;;5049365;28;20823;-64
2022/05/26 04:27:27;;;;;;;4.33;1.07;;;13.20;99.90;;;;;;5049456;28;20526;-64
2022/05/26 04:29:54;;;;;;;5.60;1.53;;;13.30;99.90;;;;;;5048945;28;20496;-65
2022/05/26 04:32:22;;;;;;;2.57;1.10;;;13.50;99.90;;;;;;5049076;28;20506;-64
2022/05/26 04:34:51;;;;;;;2.30;1.10;;;13.70;99.90;;;;;;5049383;28;20946;-65
2022/05/26 04:37:19;;;;;;;2.00;1.10;;;13.90;99.90;;;;;;5049178;28;20496;-64
2022/05/26 04:39:46;;;;;;;2.63;1.20;;;14.10;99.90;;;;;;5048721;28;20468;-65
2022/05/26 04:42:13;;;;;;;2.80;1.10;;;14.40;99.90;;;;;;5050759;28;20447;-65
2022/05/26 04:44:44;;;;;;;1.63;0.70;;;14.50;99.90;;;;;;5053271;28;20447;-64
2022/05/26 04:47:11;;;;;;;3.40;1.23;;;14.70;99.90;;;;;;5053195;28;20513;-64
2022/05/26 04:49:38;;;;;;;1.80;0.97;;;14.90;99.90;;;;;;5052781;28;20474;-64
2022/05/26 04:52:06;;;;;;;2.53;1.20;;;15.00;99.90;;;;;;5052299;28;20479;-64
2022/05/26 04:54:32;;;;;;;4.27;1.10;;;15.00;99.90;;;;;;5053102;28;20953;-64
2022/05/26 04:57:00;;;;;;;2.30;0.90;;;15.00;99.90;;;;;;5052585;28;20831;-65
2022/05/26 04:59:27;;;;;;;2.53;0.90;;;14.80;99.90;;;;;;5052806;28;20471;-64
2022/05/26 05:01:55;;;;;;;2.07;0.93;;;14.80;99.90;;;;;;5052591;28;20444;-63
2022/05/26 05:04:24;;;;;;;2.13;1.10;;;14.70;99.90;;;;;;5052571;28;20458;-65
2022/05/26 05:06:51;;;;;;;2.10;1.13;;;14.60;99.90;;;;;;5052583;28;20448;-64
2022/05/26 05:09:18;;;;;;;1.97;0.90;;;14.60;99.90;;;;;;5052286;28;20985;-65
2022/05/26 05:11:45;;;;;;;2.63;0.90;;;14.60;99.90;;;;;;5052503;28;20490;-64
2022/05/26 05:14:12;;;;;;;3.27;1.00;;;14.60;99.90;;;;;;5052649;28;20816;-65
2022/05/26 05:16:43;;;;;;;2.13;0.90;;;14.70;99.90;;;;;;5052816;28;20454;-64
2022/05/26 05:19:11;;;;;;;2.00;1.00;;;14.80;99.90;;;;;;5052241;28;20455;-64
2022/05/26 05:21:42;;;;;;;1.90;1.03;;;14.90;99.90;;;;;;5052627;28;20450;-64
2022/05/26 05:24:16;;;;;;;2.30;1.10;;;15.00;99.90;;;;;;5052844;28;20448;-64
2022/05/26 05:26:45;;;;;;;3.50;1.00;;;15.00;99.90;;;;;;5052638;28;20448;-64
2022/05/26 05:29:16;;;;;;;2.80;1.10;;;15.20;99.90;;;;;;5052599;28;20533;-64
2022/05/26 05:31:48;;;;;;;3.07;1.20;;;15.40;99.90;;;;;;5052173;28;20475;-65
2022/05/26 05:34:20;;;;;;;4.37;1.00;;;15.50;99.90;;;;;;5052532;28;20463;-65
2022/05/26 05:36:47;;;;;;;2.60;1.07;;;15.70;99.90;;;;;;5052562;28;20452;-64
2022/05/26 05:39:14;;;;;;;4.67;0.93;;;15.80;99.90;;;;;;5052110;28;20474;-64
2022/05/26 05:41:41;;;;;;;4.00;1.37;;;15.80;99.90;;;;;;5051758;28;20456;-64
2022/05/26 05:44:08;;;;;;;1.80;0.83;;;15.90;99.90;;;;;;5051983;28;20826;-63
2022/05/26 05:46:53;;;;;;;5.17;1.90;;;15.90;99.90;;;;;;5051946;28;20890;-64
2022/05/26 05:49:22;;;;;;;1.87;0.90;;;15.80;99.90;;;;;;5052079;28;20460;-64
2022/05/26 05:51:49;;;;;;;1.70;0.90;;;15.70;99.90;;;;;;5051431;28;20997;-65
2022/05/26 05:54:16;;;;;;;2.00;0.90;;;15.80;99.90;;;;;;5051522;28;20914;-63
2022/05/26 05:56:43;;;;;;;3.40;1.10;;;15.80;99.90;;;;;;5051920;28;20448;-64
2022/05/26 05:59:10;;;;;;;1.90;0.83;;;16.10;99.90;;;;;;5051893;28;20458;-64
2022/05/26 06:01:36;;;;;;;4.63;2.23;;;16.60;99.90;;;;;;5051335;28;20462;-64
2022/05/26 06:04:03;;;;;;;3.70;1.20;;;17.00;99.90;;;;;;5052064;28;20539;-65
2022/05/26 06:06:37;;;;;;;2.30;0.77;;;17.20;99.90;;;;;;5051715;28;20454;-65
2022/05/26 06:09:04;;;;;;;4.47;1.13;;;17.10;99.90;;;;;;5051462;28;20942;-64
2022/05/26 06:11:32;;;;;;;2.87;1.00;;;17.10;99.90;;;;;;5051031;28;20440;-64
2022/05/26 06:13:59;;;;;;;3.53;1.00;;;17.00;99.90;;;;;;5051733;28;20807;-64
2022/05/26 06:16:25;;;;;;;3.20;1.20;;;17.00;99.90;;;;;;5051488;28;20530;-65
2022/05/26 06:18:53;;;;;;;2.50;0.90;;;17.10;99.90;;;;;;5051506;28;20459;-64
2022/05/26 06:21:21;;;;;;;4.13;1.10;;;17.20;99.90;;;;;;5051108;28;20463;-64
2022/05/26 06:23:49;;;;;;;5.30;1.30;;;17.30;99.90;;;;;;5051265;28;20440;-65
2022/05/26 06:26:16;;;;;;;2.90;1.30;;;17.40;99.90;;;;;;5051611;28;20452;-65
2022/05/26 06:31:26;;;;;;;2.80;0.97;;;17.50;99.90;;;;;;5051062;28;20419;-65
2022/05/26 06:39:25;;;;;;;2.07;1.07;;;17.70;99.90;;;;;;5037139;28;20448;-65
2022/05/26 06:42:07;;;;;;;3.47;0.90;;;17.70;99.90;;;;;;5051051;28;20455;-65
2022/05/26 06:44:37;;;;;;;3.60;1.03;;;17.70;99.90;;;;;;5051204;28;20456;-66
2022/05/26 06:47:08;;;;;;;2.77;0.90;;;17.70;99.90;;;;;;5051398;28;20448;-65
2022/05/26 06:49:36;;;;;;;2.40;1.10;;;17.60;99.90;;;;;;5051357;28;20463;-65
2022/05/26 06:52:04;;;;;;;2.17;0.90;;;17.70;99.90;;;;;;5050967;28;20494;-65
2022/05/26 06:54:34;;;;;;;3.47;1.00;;;17.80;99.90;;;;;;5051182;28;20470;-65
2022/05/26 06:57:01;;;;;;;4.90;1.00;;;17.90;99.90;;;;;;5050924;28;20547;-65
2022/05/26 06:59:28;;;;;;;2.10;1.27;;;17.90;99.90;;;;;;5050627;28;20468;-65
2022/05/26 07:01:55;;;;;;;3.93;1.10;;;17.90;99.90;;;;;;5050325;28;20451;-65
2022/05/26 07:04:22;;;;;;;10.20;3.43;;;18.10;99.90;;;;;;5050527;28;20462;-65
2022/05/26 07:06:50;;;;;;;4.90;1.10;;;18.20;99.90;;;;;;5050195;28;20542;-65
2022/05/26 07:09:17;;;;;;;1.90;0.90;;;18.40;99.90;;;;;;5050308;28;20897;-65
2022/05/26 07:11:46;;;;;;;1.90;0.90;;;18.30;99.90;;;;;;5050495;28;20455;-65
2022/05/26 07:14:13;;;;;;;2.33;1.10;;;18.30;99.90;;;;;;5050604;28;20839;-65
2022/05/26 07:16:41;;;;;;;3.87;0.90;;;18.10;99.90;;;;;;5050480;28;20454;-63
2022/05/26 07:19:08;;;;;;;1.97;0.87;;;17.90;99.90;;;;;;5050386;28;20463;-65
2022/05/26 07:21:35;;;;;;;2.43;1.20;;;17.90;99.90;;;;;;5050017;28;20440;-65
2022/05/26 07:24:02;;;;;;;2.57;1.20;;;18.00;99.90;;;;;;5050264;28;20523;-65
2022/05/26 07:26:32;;;;;;;2.60;1.30;;;18.10;99.90;;;;;;5050381;28;20444;-65
2022/05/26 07:29:00;;;;;;;4.20;1.37;;;18.20;99.90;;;;;;5050262;28;20502;-65
2022/05/26 07:31:27;;;;;;;5.30;1.43;;;18.40;99.90;;;;;;5049906;28;20451;-65
2022/05/26 07:33:55;;;;;;;2.73;1.00;;;18.60;99.90;;;;;;5050128;28;20483;-65
2022/05/26 07:41:56;;;;;;;2.10;0.80;;;19.00;99.90;;;;;;5049733;28;20440;-65
2022/05/26 07:44:25;;;;;;;2.63;1.03;;;19.00;99.90;;;;;;5049997;28;20444;-65
2022/05/26 07:46:52;;;;;;;1.70;0.80;;;18.90;99.90;;;;;;5049794;28;20459;-65
2022/05/26 07:49:19;;;;;;;1.90;0.80;;;18.90;99.90;;;;;;5049735;28;20464;-65
2022/05/26 07:51:46;;;;;;;4.33;1.10;;;19.00;99.90;;;;;;5049466;28;20953;-66
2022/05/26 07:54:13;;;;;;;2.40;1.10;;;19.00;99.90;;;;;;5050190;28;20476;-65
2022/05/26 07:56:40;;;;;;;2.20;0.90;;;19.10;99.90;;;;;;5049743;28;20440;-65
2022/05/26 07:59:08;;;;;;;2.20;1.00;;;19.10;99.90;;;;;;5050161;28;20440;-65
2022/05/26 08:01:37;;;;;;;3.03;1.10;;;19.00;99.70;;;;;;5049291;28;20941;-65
2022/05/26 08:04:07;;;;;;;3.60;0.97;;;19.10;99.90;;;;;;5050638;28;20198;-65
2022/05/26 08:06:34;;;;;;;3.67;1.10;;;19.30;99.90;;;;;;5050805;28;20853;-64
2022/05/26 08:09:01;;;;;;;2.40;1.00;;;19.30;99.70;;;;;;5050363;28;20519;-65
2022/05/26 08:11:27;;;;;;;4.10;0.90;;;19.30;99.90;;;;;;5050145;28;20440;-64
2022/05/26 08:13:54;;;;;;;3.03;1.20;;;19.30;99.60;;;;;;5055872;28;20473;-64
2022/05/26 08:16:21;;;;;;;3.63;0.97;;;19.30;99.90;;;;;;5070424;28;20500;-64
2022/05/26 08:18:49;;;;;;;2.00;0.90;;;19.30;99.90;;;;;;5076162;28;20544;-65
2022/05/26 08:21:18;;;;;;;3.10;1.20;;;19.20;99.90;;;;;;5075989;28;21033;-65
2022/05/26 08:23:45;;;;;;;6.03;1.00;;;19.10;99.90;;;;;;5076465;28;20526;-65
2022/05/26 08:26:12;;;;;;;4.03;1.30;;;19.00;99.90;;;;;;5076550;28;20449;-68
2022/05/26 08:28:39;;;;;;;2.30;1.00;;;18.90;99.90;;;;;;5076206;28;20970;-65
2022/05/26 08:31:08;;;;;;;2.60;0.83;;;18.70;99.90;;;;;;5076227;28;20469;-65
2022/05/26 08:33:36;;;;;;;3.30;1.20;;;18.50;99.90;;;;;;5076223;28;20991;-64
2022/05/26 08:36:07;;;;;;;2.63;1.00;;;18.50;99.90;;;;;;5076389;28;20442;-65
2022/05/26 08:38:35;;;;;;;3.60;1.20;;;18.60;99.90;;;;;;5076486;28;20443;-65
2022/05/26 08:41:03;;;;;;;1.80;0.80;;;18.90;99.90;;;;;;5075770;28;20808;-65
2022/05/26 08:43:36;;;;;;;2.43;1.40;;;19.20;99.90;;;;;;5076396;28;20492;-66
2022/05/26 08:46:07;;;;;;;3.83;1.20;;;19.40;99.70;;;;;;5076414;28;20438;-65
2022/05/26 08:48:48;;;;;;;3.60;1.10;;;19.50;99.90;;;;;;5076227;28;20500;-65
2022/05/26 08:51:23;;;;;;;3.10;1.13;;;19.60;99.90;;;;;;5075793;28;20520;-64
2022/05/26 08:53:52;;;;;;;3.73;1.10;;;19.60;99.60;;;;;;5076145;28;20474;-65
2022/05/26 08:56:24;;;;;;;2.57;1.10;;;19.70;99.50;;;;;;5076279;28;20438;-65
2022/05/26 08:58:57;;;;;;;2.90;1.00;;;19.90;99.50;;;;;;5076214;28;20439;-66
2022/05/26 09:01:28;;;;;;;2.10;1.03;;;20.10;98.50;;;;;;5075803;28;20451;-65
2022/05/26 09:03:55;;;;;;;2.87;1.20;;;20.40;98.80;;;;;;5076143;28;20449;-65
2022/05/26 09:06:23;;;;;;;1.83;0.70;;;20.80;98.50;;;;;;5076078;28;21141;-64
2022/05/26 09:14:25;;;;;;;2.73;1.50;;;21.60;97.60;;;;;;5075962;28;20486;-65
2022/05/26 09:16:58;;;;;;;2.97;1.20;;;21.90;97.30;;;;;;5075937;28;20438;-65
2022/05/26 09:19:25;;;;;;;3.80;0.97;;;21.50;96.50;;;;;;5075592;28;20451;-65
2022/05/26 09:21:54;;;;;;;4.27;1.17;;;21.30;97.00;;;;;;5075730;28;20445;-65
2022/05/26 09:24:24;;;;;;;2.00;0.90;;;21.30;96.60;;;;;;5076060;28;20522;-66
2022/05/26 09:26:56;;;;;;;2.20;1.00;;;21.20;97.20;;;;;;5075784;28;20538;-65
2022/05/26 09:29:26;;;;;;;2.37;1.20;;;21.20;96.80;;;;;;5072668;28;20481;-65
2022/05/26 09:31:54;;;;;;;2.60;0.87;;;21.20;96.60;;;;;;5072740;28;20439;-65
2022/05/26 09:34:23;;;;;;;3.13;1.10;;;21.00;96.50;;;;;;5072759;28;20479;-65
2022/05/26 09:36:53;;;;;;;2.77;1.10;;;20.90;96.80;;;;;;5073328;28;21019;-65
2022/05/26 09:39:23;;;;;;;2.40;1.10;;;20.80;97.40;;;;;;5069049;28;20467;-66
2022/05/26 09:41:53;;;;;;;3.03;1.10;;;21.00;97.30;;;;;;5061655;28;21081;-66
2022/05/26 09:44:48;;;;;;;2.17;1.17;;;21.20;96.60;;;;;;5070330;28;20467;-65
2022/05/26 09:47:30;;;;;;;2.40;1.00;;;21.20;96.60;;;;;;5064447;28;20448;-65
2022/05/26 09:50:00;;;;;;;2.83;1.27;;;21.10;97.70;;;;;;5071882;28;21141;-66
2022/05/26 09:52:39;;;;;;;2.00;1.00;;;21.10;97.10;;;;;;5070817;28;20443;-65
2022/05/26 09:55:18;;;;;;;2.20;1.00;;;21.50;96.20;;;;;;5065784;28;21168;-65
2022/05/26 09:57:46;;;;;;;2.13;1.00;;;21.70;95.90;;;;;;5065943;28;20450;-66
2022/05/26 10:00:34;;;;;;;2.23;1.00;;;22.20;96.50;;;;;;5067029;28;20473;-66
2022/05/26 10:03:13;;;;;;;1.97;1.07;;;22.40;96.10;;;;;;5071647;28;20439;-65
2022/05/26 10:05:47;;;;;;;2.00;1.00;;;22.10;96.00;;;;;;5070321;28;20427;-63
2022/05/26 10:08:25;;;;;;;7.00;1.20;;;21.70;95.90;;;;;;5076059;28;20824;-64
2022/05/26 10:10:59;;;;;;;2.40;1.10;;;21.40;97.10;;;;;;5070053;28;20478;-64
2022/05/26 10:13:51;;;;;;;2.63;0.97;;;21.30;97.10;;;;;;5068607;28;20862;-65
2022/05/26 10:16:26;;;;;;;2.50;1.10;;;21.20;97.60;;;;;;5068795;28;20979;-65
2022/05/26 10:19:15;;;;;;;2.87;1.10;;;21.20;97.10;;;;;;5066052;28;20447;-66
2022/05/26 10:21:53;;;;;;;2.50;0.97;;;20.90;97.40;;;;;;5071365;28;20447;-65
2022/05/26 10:24:45;;;;;;;4.00;1.00;;;20.80;98.20;;;;;;5065849;28;20457;-71
2022/05/26 10:27:25;;;;;;;1.70;0.77;;;20.90;98.50;;;;;;5068851;28;20461;-67
2022/05/26 10:30:05;;;;;;;3.10;1.33;;;20.90;97.40;;;;;;5066232;28;20470;-66
2022/05/26 10:32:38;;;;;;;3.40;1.47;;;20.80;97.40;;;;;;5068605;28;20443;-64
2022/05/26 10:35:27;;;;;;;2.90;1.10;;;20.80;97.40;;;;;;5068859;28;21004;-66
2022/05/26 10:38:08;;;;;;;3.20;1.10;;;20.70;97.90;;;;;;5063488;28;20542;-66
2022/05/26 10:40:46;;;;;;;2.77;1.20;;;20.70;97.20;;;;;;5069803;28;20842;-66
2022/05/26 10:43:20;;;;;;;2.03;0.90;;;20.50;97.60;;;;;;5070765;28;20514;-65
2022/05/26 10:45:51;;;;;;;4.33;0.93;;;20.70;98.30;;;;;;5069756;28;20439;-70
2022/05/26 10:48:25;;;;;;;2.77;1.23;;;21.10;98.30;;;;;;5070124;28;20837;-66
2022/05/26 10:50:59;;;;;;;4.00;1.10;;;21.20;97.40;;;;;;5069788;28;20470;-65
2022/05/26 10:53:33;;;;;;;3.00;1.37;;;20.90;97.90;;;;;;5070387;28;20546;-65
2022/05/26 10:56:10;;;;;;;2.90;1.00;;;20.40;98.20;;;;;;5069313;28;20478;-65
2022/05/26 10:58:42;;;;;;;2.53;1.07;;;20.10;98.30;;;;;;5063665;28;20523;-65
2022/05/26 11:01:17;;;;;;;2.93;1.30;;;19.90;99.70;;;;;;5069812;28;20565;-67
2022/05/26 11:03:48;;;;;;;6.43;1.30;;;19.60;99.30;;;;;;5066596;28;20450;-64
2022/05/26 11:06:25;;;;;;;2.97;1.17;;;19.40;99.90;;;;;;5071004;28;20546;-65
2022/05/26 11:08:56;;;;;;;6.03;1.83;;;19.50;99.90;;;;;;5064593;28;20513;-65
2022/05/26 11:11:31;;;;;;;4.10;1.40;;;19.80;99.90;;;;;;5067983;28;20956;-66
2022/05/26 11:14:05;;;;;;;3.20;1.00;;;20.10;99.90;;;;;;5068224;28;20481;-65
2022/05/26 11:19:33;;;;;;;2.47;1.37;;;20.70;98.60;;;;;;5068184;28;20804;-65
2022/05/26 11:22:01;;;;;;;2.27;1.10;;;20.70;98.20;;;;;;5068563;28;20479;-65
2022/05/26 11:24:28;;;;;;;2.90;1.20;;;21.10;98.10;;;;;;5068063;28;20436;-66
2022/05/26 11:27:02;;;;;;;4.70;1.10;;;21.50;98.30;;;;;;5065429;28;20443;-66
2022/05/26 11:29:35;;;;;;;2.53;1.30;;;21.40;96.80;;;;;;5062312;28;20511;-66
2022/05/26 11:38:02;;;;;;;2.30;1.13;;;21.50;97.90;;;;;;5053897;28;21003;-66
2022/05/26 11:40:35;;;;;;;2.13;1.10;;;21.40;96.60;;;;;;5053997;28;20459;-68
2022/05/26 11:43:07;;;;;;;4.20;1.30;;;21.30;97.30;;;;;;5054848;28;20455;-68
2022/05/26 11:45:38;;;;;;;2.70;1.30;;;21.10;97.30;;;;;;5053722;28;21479;-67
2022/05/26 11:48:07;;;;;;;3.43;1.63;;;20.70;97.70;;;;;;5055190;28;20444;-68
2022/05/26 11:50:59;;;;;;;3.30;1.50;;;20.20;98.60;;;;;;5059942;28;20980;-66
2022/05/26 11:53:41;;;;;;;4.80;1.60;;;19.90;99.40;;;;;;5042275;28;20577;-68
2022/05/26 11:56:55;;;;;;;4.83;1.30;;;19.70;99.80;;;;;;5061449;28;20448;-67
2022/05/26 11:59:46;;;;;;;3.93;1.60;;;19.90;99.90;;;;;;5054905;28;20571;-67
2022/05/26 12:02:38;;;;;;;3.13;1.60;;;20.50;99.40;;;;;;5055122;28;20462;-67
2022/05/26 12:05:41;;;;;;;2.67;1.40;;;20.90;98.80;;;;;;5055035;28;20447;-68
2022/05/26 12:08:33;;;;;;;3.93;1.30;;;21.00;97.90;;;;;;5041341;28;20461;-68
2022/05/26 12:11:01;;;;;;;3.43;1.63;;;20.70;98.80;;;;;;5055475;28;20467;-66
2022/05/26 12:13:33;;;;;;;2.53;1.53;;;20.20;99.20;;;;;;5055038;28;20459;-67
2022/05/26 12:16:34;;;;;;;2.73;1.67;;;19.80;99.90;;;;;;5058925;28;20498;-68
2022/05/26 12:19:05;;;;;;;5.13;1.63;;;19.40;99.90;;;;;;5057392;28;20961;-67
2022/05/26 12:21:48;;;;;;;3.37;1.93;;;19.30;99.90;;;;;;5056292;28;20463;-69
2022/05/26 12:25:07;;;;;;;2.70;1.60;;;19.20;99.90;;;;;;5055544;28;21233;-68
2022/05/26 12:28:16;;;;;;;3.53;1.63;;;19.20;99.90;;;;;;5058200;28;20831;-69
2022/05/26 12:31:08;;;;;;;4.03;1.60;;;19.30;99.90;;;;;;5062239;28;20524;-68
2022/05/26 12:34:08;;;;;;;2.40;1.37;;;19.70;99.90;;;;;;5063029;28;20459;-69
2022/05/26 12:36:57;;;;;;;4.27;1.80;;;20.10;99.90;;;;;;5064538;28;20449;-68
2022/05/26 12:39:57;;;;;;;3.23;1.63;;;20.50;99.90;;;;;;5062156;28;20458;-68
2022/05/26 12:42:34;;;;;;;3.97;1.87;;;20.80;99.90;;;;;;5064695;28;20443;-66
2022/05/26 12:45:27;;;;;;;3.47;1.80;;;21.30;99.90;;;;;;5063622;28;20474;-67
2022/05/26 12:48:39;;;;;;;4.10;1.80;;;21.40;99.60;;;;;;5064247;28;20906;-68
2022/05/26 12:51:11;;;;;;;4.40;1.70;;;21.30;99.70;;;;;;4980296;28;20546;-68
2022/05/26 12:53:40;;;;;;;3.57;1.60;;;21.40;99.40;;;;;;5056536;28;20987;-68
2022/05/26 12:56:12;;;;;;;7.00;1.60;;;21.40;98.70;;;;;;5063081;28;20447;-67
2022/05/26 12:58:44;;;;;;;4.40;1.70;;;21.40;98.90;;;;;;5064905;28;20453;-68
2022/05/26 13:01:14;;;;;;;4.53;1.67;;;21.20;99.90;;;;;;5065199;28;20837;-67
2022/05/26 13:03:43;;;;;;;2.87;1.03;;;21.00;99.20;;;;;;5068878;28;20447;-66
2022/05/26 13:06:14;;;;;;;2.17;1.37;;;20.60;98.70;;;;;;5054930;28;20466;-68
2022/05/26 13:08:48;;;;;;;3.80;1.43;;;20.20;99.90;;;;;;5071640;28;20443;-64
2022/05/26 13:11:18;;;;;;;2.40;1.30;;;20.00;99.90;;;;;;5070319;28;20462;-66
2022/05/26 13:13:49;;;;;;;2.60;1.40;;;20.00;99.90;;;;;;5071165;28;20439;-66
2022/05/26 13:16:25;;;;;;;4.33;1.90;;;20.00;99.90;;;;;;5071466;28;20515;-65
2022/05/26 13:18:52;;;;;;;2.97;1.50;;;20.10;99.90;;;;;;5071887;28;20449;-66
2022/05/26 13:21:23;;;;;;;6.50;1.50;;;20.20;99.90;;;;;;5070866;28;20522;-66
2022/05/26 13:23:51;;;;;;;2.97;1.83;;;20.10;99.90;;;;;;5071602;28;20449;-65
2022/05/26 13:26:19;;;;;;;2.80;1.30;;;20.00;99.90;;;;;;5071099;28;20439;-67
2022/05/26 13:28:49;;;;;;;2.83;1.23;;;19.70;99.90;;;;;;5072313;28;20447;-65
2022/05/26 13:34:05;;;;;;;3.87;2.47;;;19.60;99.90;;;;;;5071878;28;20983;-66
2022/05/26 13:36:35;;;;;;;5.63;3.43;;;19.50;99.90;;;;;;5067084;28;20497;-64
2022/05/26 13:39:07;;;;;;;4.83;2.20;;;19.40;99.90;;;;;;5071202;28;20435;-66
2022/05/26 13:41:36;;;;;;;3.73;2.23;;;19.40;99.90;;;;;;5070209;28;20454;-67
2022/05/26 13:44:06;;;;;;;5.10;2.10;;;19.30;99.90;;;;;;5062811;28;21072;-66
2022/05/26 13:46:34;;;;;;;7.60;1.83;;;19.30;99.90;;;;;;5069847;28;20454;-65
2022/05/26 13:49:14;;;;;;;3.07;1.40;;;19.40;99.90;;;;;;5069207;28;20526;-66
2022/05/26 13:51:46;;;;;;;3.07;1.30;;;19.40;99.90;;;;;;5070935;28;20984;-66
2022/05/26 13:54:27;;;;;;;3.37;1.93;;;19.30;99.90;;;;;;5067537;28;21070;-67
2022/05/26 13:56:56;;;;;;;8.20;2.20;;;19.20;99.90;;;;;;5067782;28;20443;-66